Time;durP1;ratioP1;P1;durP2;ratioP2;P2;SDS_P1;SDS_P2;PMS_P1;PMS_P2;Temp;Humidity;BMP_temperature;BMP_pressure;BME280_temperature;BME280_humidity;BME280_pressure;Samples;Min_cycle;Max_cycle;Signal;HPM_P1;HPM_P2
2021/01/26 00:02:13;;;;;;;4.80;1.50;;;0.70;99.90;;;;;;4964126;28;20178;-84
2021/01/26 00:04:39;;;;;;;4.03;1.43;;;0.60;99.90;;;;;;4962706;28;20206;-85
2021/01/26 00:07:05;;;;;;;4.67;1.30;;;0.50;99.90;;;;;;4966280;28;20680;-85
2021/01/26 00:09:30;;;;;;;2.00;1.00;;;0.50;99.90;;;;;;4962492;28;20246;-85
2021/01/26 00:11:56;;;;;;;4.20;1.43;;;0.60;99.90;;;;;;4962185;28;20178;-84
2021/01/26 00:14:21;;;;;;;3.20;1.40;;;0.50;99.90;;;;;;4961583;28;20680;-86
2021/01/26 00:16:47;;;;;;;3.57;1.20;;;0.60;99.90;;;;;;4962433;28;20329;-84
2021/01/26 00:19:12;;;;;;;4.87;1.30;;;0.60;99.90;;;;;;4963197;28;20191;-84
2021/01/26 00:21:38;;;;;;;3.77;1.20;;;0.50;99.90;;;;;;4963225;28;20577;-85
2021/01/26 00:24:04;;;;;;;4.37;1.60;;;0.50;99.90;;;;;;4965298;28;20185;-84
2021/01/26 00:26:30;;;;;;;4.20;1.70;;;0.60;99.90;;;;;;4963835;28;20182;-85
2021/01/26 00:28:56;;;;;;;7.00;2.27;;;0.60;99.90;;;;;;4962988;28;20312;-84
2021/01/26 00:31:21;;;;;;;7.17;2.03;;;0.50;99.90;;;;;;4963301;28;20186;-84
2021/01/26 00:33:47;;;;;;;4.90;1.93;;;0.60;99.90;;;;;;4966415;28;20193;-84
2021/01/26 00:36:12;;;;;;;5.10;1.83;;;0.60;99.90;;;;;;4964907;28;20210;-86
2021/01/26 00:38:38;;;;;;;6.23;2.17;;;0.60;99.90;;;;;;4971610;28;20206;-86
2021/01/26 00:41:03;;;;;;;6.67;2.17;;;0.70;99.90;;;;;;4969681;28;20178;-85
2021/01/26 00:43:29;;;;;;;8.10;3.30;;;0.70;99.90;;;;;;4968119;28;20245;-85
2021/01/26 00:45:54;;;;;;;6.23;2.43;;;0.70;99.90;;;;;;4969862;28;20189;-84
2021/01/26 00:48:20;;;;;;;14.53;2.40;;;0.70;99.90;;;;;;4968023;28;20209;-84
2021/01/26 00:50:46;;;;;;;5.43;2.13;;;0.70;99.90;;;;;;4970547;28;20178;-85
2021/01/26 00:53:11;;;;;;;13.23;2.40;;;0.60;99.90;;;;;;4971562;28;20637;-85
2021/01/26 00:55:38;;;;;;;8.80;2.90;;;0.60;99.90;;;;;;4971689;28;20273;-84
2021/01/26 00:58:04;;;;;;;9.03;2.87;;;0.60;99.90;;;;;;4971415;28;20202;-84
2021/01/26 01:00:32;;;;;;;10.47;3.83;;;0.60;99.90;;;;;;4972003;28;20179;-84
2021/01/26 01:02:58;;;;;;;20.60;6.33;;;0.60;99.90;;;;;;4972715;28;20182;-85
2021/01/26 01:05:23;;;;;;;20.03;6.60;;;0.60;99.90;;;;;;4974193;28;20779;-86
2021/01/26 01:07:49;;;;;;;15.80;6.43;;;0.60;99.90;;;;;;4974677;28;20222;-85
2021/01/26 01:10:19;;;;;;;14.63;5.57;;;0.60;99.90;;;;;;4974355;28;20245;-85
2021/01/26 01:12:45;;;;;;;15.77;6.47;;;0.70;99.90;;;;;;4974574;28;20182;-85
2021/01/26 01:15:12;;;;;;;13.07;5.43;;;0.70;99.90;;;;;;4975118;28;20190;-85
2021/01/26 01:17:37;;;;;;;15.07;6.83;;;0.70;99.90;;;;;;4974713;28;20205;-86
2021/01/26 01:20:08;;;;;;;13.90;5.70;;;0.60;99.90;;;;;;4974260;28;20185;-85
2021/01/26 01:22:33;;;;;;;14.13;6.03;;;0.70;99.90;;;;;;4972753;28;20174;-85
2021/01/26 01:24:59;;;;;;;13.40;5.47;;;0.70;99.90;;;;;;4974015;28;20258;-85
2021/01/26 01:27:24;;;;;;;13.03;5.70;;;0.80;99.90;;;;;;4973523;28;20190;-84
2021/01/26 01:29:50;;;;;;;16.03;6.43;;;0.80;99.90;;;;;;4972363;28;20244;-84
2021/01/26 01:32:15;;;;;;;13.27;6.47;;;0.80;99.90;;;;;;4975751;28;20254;-85
2021/01/26 01:34:42;;;;;;;13.17;6.20;;;0.70;99.90;;;;;;4974674;28;20193;-85
2021/01/26 01:37:08;;;;;;;11.27;5.77;;;0.80;99.90;;;;;;4974943;28;20202;-84
2021/01/26 01:39:33;;;;;;;10.87;5.17;;;0.70;99.90;;;;;;4973616;28;20174;-86
2021/01/26 01:42:04;;;;;;;12.57;5.47;;;0.80;99.90;;;;;;4972993;28;20189;-86
2021/01/26 01:44:30;;;;;;;12.03;5.83;;;0.80;99.90;;;;;;4971194;28;20174;-85
2021/01/26 01:46:59;;;;;;;13.33;5.83;;;0.90;99.90;;;;;;4971356;28;20232;-85
2021/01/26 01:49:31;;;;;;;13.13;5.93;;;0.90;99.90;;;;;;4972464;28;20186;-84
2021/01/26 01:51:58;;;;;;;17.60;7.00;;;0.90;99.90;;;;;;4972456;28;20182;-86
2021/01/26 01:54:36;;;;;;;17.63;7.17;;;0.80;99.90;;;;;;4973562;28;20182;-86
2021/01/26 01:57:05;;;;;;;19.00;7.57;;;0.80;99.90;;;;;;4973583;28;20216;-84
2021/01/26 01:59:41;;;;;;;16.83;7.30;;;0.90;99.90;;;;;;4972338;28;20186;-85
2021/01/26 02:02:07;;;;;;;17.83;7.97;;;0.90;99.90;;;;;;4971177;28;20189;-85
2021/01/26 02:04:35;;;;;;;16.70;7.63;;;0.90;99.90;;;;;;4972487;28;20178;-85
2021/01/26 02:07:01;;;;;;;19.23;9.33;;;0.90;99.90;;;;;;4974262;28;20210;-85
2021/01/26 02:09:36;;;;;;;20.27;8.53;;;0.90;99.90;;;;;;4973339;28;20265;-85
2021/01/26 02:12:03;;;;;;;16.77;7.97;;;0.90;99.90;;;;;;4972845;28;20189;-85
2021/01/26 02:14:33;;;;;;;21.47;8.70;;;1.00;99.90;;;;;;4972306;28;20193;-85
2021/01/26 02:17:01;;;;;;;17.73;8.47;;;1.00;99.90;;;;;;4975761;28;20298;-84
2021/01/26 02:20:05;;;;;;;19.80;8.37;;;0.90;99.90;;;;;;4974735;28;20185;-85
2021/01/26 02:22:49;;;;;;;19.93;8.57;;;1.00;99.90;;;;;;4973111;28;20197;-84
2021/01/26 02:25:33;;;;;;;21.90;10.00;;;1.00;99.90;;;;;;4975020;28;20158;-85
2021/01/26 02:28:17;;;;;;;20.97;9.70;;;1.00;99.90;;;;;;4972949;28;20194;-86
2021/01/26 02:31:25;;;;;;;24.23;10.23;;;1.00;99.90;;;;;;4977391;28;20222;-85
2021/01/26 02:34:12;;;;;;;20.13;9.07;;;0.90;99.90;;;;;;4977926;28;20170;-84
2021/01/26 02:37:00;;;;;;;22.33;10.03;;;0.90;99.90;;;;;;4976737;28;20209;-85
2021/01/26 02:39:37;;;;;;;20.47;9.23;;;1.00;99.90;;;;;;4975022;28;20161;-85
2021/01/26 02:42:25;;;;;;;18.93;9.73;;;1.00;99.90;;;;;;4958884;28;20201;-85
2021/01/26 02:45:22;;;;;;;20.80;10.07;;;1.10;99.90;;;;;;4958304;28;20178;-83
2021/01/26 02:48:26;;;;;;;18.53;9.40;;;1.10;99.90;;;;;;4958922;28;20202;-84
2021/01/26 02:51:02;;;;;;;21.50;10.57;;;1.10;99.90;;;;;;4958692;28;20178;-84
2021/01/26 02:53:33;;;;;;;21.37;10.63;;;0.90;99.90;;;;;;4959373;28;20659;-84
2021/01/26 02:56:36;;;;;;;23.60;11.17;;;1.00;99.90;;;;;;4960050;28;20285;-83
2021/01/26 02:59:25;;;;;;;22.57;12.30;;;1.10;99.90;;;;;;4963728;28;20182;-84
2021/01/26 03:01:58;;;;;;;26.37;12.37;;;1.10;99.90;;;;;;4968277;28;20182;-85
2021/01/26 03:04:35;;;;;;;28.60;12.67;;;1.10;99.90;;;;;;4961225;28;20189;-84
2021/01/26 03:07:04;;;;;;;29.93;13.17;;;1.20;99.90;;;;;;4963409;28;20220;-84
2021/01/26 03:09:40;;;;;;;29.13;14.07;;;1.20;99.90;;;;;;4963006;28;20178;-86
2021/01/26 03:12:28;;;;;;;27.90;13.40;;;1.20;99.90;;;;;;4959707;28;20252;-84
2021/01/26 03:15:17;;;;;;;27.10;12.47;;;1.20;99.90;;;;;;4961775;28;20604;-84
2021/01/26 03:17:50;;;;;;;32.00;14.00;;;1.20;99.90;;;;;;4961023;28;20275;-83
2021/01/26 03:20:35;;;;;;;27.30;12.90;;;1.20;99.90;;;;;;4960026;28;20174;-85
2021/01/26 03:23:12;;;;;;;27.63;13.37;;;1.20;99.90;;;;;;4959175;28;20182;-84
2021/01/26 03:25:42;;;;;;;26.70;13.23;;;1.20;99.90;;;;;;4961422;28;20201;-85
2021/01/26 03:28:11;;;;;;;26.53;13.17;;;1.10;99.90;;;;;;4962975;28;20198;-85
2021/01/26 03:30:40;;;;;;;27.30;13.60;;;1.20;99.90;;;;;;4963043;28;20297;-86
2021/01/26 03:33:11;;;;;;;27.67;14.63;;;1.20;99.90;;;;;;4963719;28;20182;-84
2021/01/26 03:35:37;;;;;;;28.33;13.50;;;1.20;99.90;;;;;;4961767;28;20210;-85
2021/01/26 03:38:13;;;;;;;26.97;14.73;;;1.20;99.90;;;;;;4962232;28;20648;-85
2021/01/26 03:40:38;;;;;;;27.37;14.50;;;1.20;99.90;;;;;;4963856;28;20178;-84
2021/01/26 03:43:04;;;;;;;27.33;15.07;;;1.20;99.90;;;;;;4964522;28;20637;-84
2021/01/26 03:45:29;;;;;;;28.53;12.83;;;1.30;99.90;;;;;;4964230;28;20186;-85
2021/01/26 03:48:21;;;;;;;23.07;12.40;;;1.30;99.90;;;;;;4964225;28;20202;-84
2021/01/26 03:51:15;;;;;;;23.33;11.30;;;1.30;99.90;;;;;;4966512;28;20185;-84
2021/01/26 03:53:51;;;;;;;23.20;11.40;;;1.30;99.90;;;;;;4963363;28;20380;-84
2021/01/26 03:56:41;;;;;;;22.97;11.43;;;1.30;99.90;;;;;;4962699;28;20213;-86
2021/01/26 03:59:41;;;;;;;26.57;13.37;;;1.30;99.90;;;;;;4962636;28;20261;-85
2021/01/26 04:02:32;;;;;;;26.90;13.27;;;1.20;99.90;;;;;;4962073;28;20209;-84
2021/01/26 04:05:17;;;;;;;24.17;11.07;;;1.30;99.90;;;;;;4961774;28;20182;-85
2021/01/26 04:08:03;;;;;;;24.80;11.77;;;1.30;99.90;;;;;;4961062;28;20233;-83
2021/01/26 04:10:38;;;;;;;25.77;13.30;;;1.30;99.90;;;;;;4924704;28;20237;-84
2021/01/26 04:13:10;;;;;;;24.03;11.87;;;1.30;99.90;;;;;;4966990;28;20676;-85
2021/01/26 04:15:45;;;;;;;27.67;11.00;;;1.30;99.90;;;;;;4964185;28;20313;-84
2021/01/26 04:18:13;;;;;;;24.73;10.40;;;1.20;99.90;;;;;;4963827;28;20201;-84
2021/01/26 04:20:41;;;;;;;21.00;9.70;;;1.20;99.90;;;;;;4964094;28;20174;-85
2021/01/26 04:23:07;;;;;;;18.03;8.97;;;1.20;99.90;;;;;;4963930;28;20182;-84
2021/01/26 04:25:42;;;;;;;22.67;9.83;;;1.30;99.90;;;;;;4968524;28;20186;-85
2021/01/26 04:28:13;;;;;;;19.73;8.70;;;1.20;99.90;;;;;;4967579;28;20208;-84
2021/01/26 04:30:39;;;;;;;19.60;9.07;;;1.20;99.90;;;;;;4968817;28;20197;-85
2021/01/26 04:33:08;;;;;;;20.53;10.03;;;1.20;99.90;;;;;;4967497;28;20197;-84
2021/01/26 04:35:35;;;;;;;19.57;8.77;;;1.20;99.90;;;;;;4967184;28;20206;-85
2021/01/26 04:38:01;;;;;;;17.03;8.30;;;1.20;99.90;;;;;;4966203;28;20202;-84
2021/01/26 04:40:29;;;;;;;18.27;9.07;;;1.20;99.90;;;;;;4967641;28;20182;-84
2021/01/26 04:43:41;;;;;;;19.47;9.63;;;1.20;99.90;;;;;;4968143;28;20206;-86
2021/01/26 04:46:21;;;;;;;19.37;9.23;;;1.20;99.90;;;;;;4968113;28;20528;-85
2021/01/26 04:49:16;;;;;;;18.90;8.50;;;1.10;99.90;;;;;;4966502;28;20201;-86
2021/01/26 04:51:51;;;;;;;16.40;7.80;;;1.00;99.90;;;;;;4968620;28;20197;-84
2021/01/26 04:54:44;;;;;;;16.27;8.00;;;1.00;99.90;;;;;;4972081;28;20178;-84
2021/01/26 04:57:28;;;;;;;15.83;7.90;;;1.00;99.90;;;;;;4973510;28;20214;-86
2021/01/26 05:00:11;;;;;;;17.77;8.07;;;1.00;99.90;;;;;;4972571;28;20190;-85
2021/01/26 05:02:58;;;;;;;16.53;8.30;;;1.00;99.90;;;;;;4972443;28;20262;-84
2021/01/26 05:05:26;;;;;;;18.53;9.00;;;1.00;99.90;;;;;;4971953;28;20182;-85
2021/01/26 05:07:55;;;;;;;24.30;10.40;;;0.90;99.90;;;;;;4973374;28;20723;-83
2021/01/26 05:10:33;;;;;;;26.20;10.13;;;0.90;99.90;;;;;;4967105;28;20190;-85
2021/01/26 05:13:19;;;;;;;20.77;9.50;;;0.90;99.90;;;;;;4966217;28;20247;-85
2021/01/26 05:15:57;;;;;;;17.87;9.73;;;0.80;99.90;;;;;;4966143;28;20284;-84
2021/01/26 05:18:47;;;;;;;19.37;9.30;;;0.80;99.90;;;;;;5010036;23;20264;-85
2021/01/26 05:21:24;;;;;;;18.53;9.03;;;0.90;99.90;;;;;;4961386;28;20191;-85
2021/01/26 05:23:55;;;;;;;19.87;9.17;;;0.80;99.90;;;;;;4961017;28;20173;-84
2021/01/26 05:26:21;;;;;;;19.77;9.23;;;0.80;99.90;;;;;;4960585;28;20247;-83
2021/01/26 05:28:47;;;;;;;21.17;9.93;;;0.80;99.90;;;;;;4959949;28;20197;-84
2021/01/26 05:31:26;;;;;;;20.10;9.33;;;0.80;99.90;;;;;;4960751;28;20269;-85
2021/01/26 05:34:09;;;;;;;24.43;9.97;;;0.80;99.90;;;;;;4959392;28;20174;-87
2021/01/26 05:36:36;;;;;;;18.37;9.10;;;0.70;99.90;;;;;;4959506;28;20208;-88
2021/01/26 05:39:04;;;;;;;20.50;8.93;;;0.70;99.90;;;;;;4959452;28;20202;-86
2021/01/26 05:41:31;;;;;;;33.57;10.77;;;0.70;99.90;;;;;;4958872;28;20174;-87
2021/01/26 05:43:59;;;;;;;17.50;8.70;;;0.60;99.90;;;;;;4976731;28;20170;-86
2021/01/26 05:46:39;;;;;;;49.23;10.87;;;0.60;99.90;;;;;;4976799;28;20171;-85
2021/01/26 05:49:05;;;;;;;15.87;8.57;;;0.60;99.90;;;;;;4958553;28;20571;-86
2021/01/26 05:51:32;;;;;;;16.97;8.43;;;0.60;99.90;;;;;;4958781;28;20237;-85
2021/01/26 05:54:05;;;;;;;18.47;8.63;;;0.60;99.90;;;;;;4958629;28;20644;-85
2021/01/26 05:56:32;;;;;;;17.57;7.83;;;0.70;99.90;;;;;;4958414;28;20193;-86
2021/01/26 05:59:19;;;;;;;15.07;7.87;;;0.60;99.90;;;;;;4963507;28;20206;-84
2021/01/26 06:01:44;;;;;;;17.10;7.90;;;0.60;99.90;;;;;;4954794;28;20241;-87
2021/01/26 06:04:11;;;;;;;13.70;6.83;;;0.60;99.90;;;;;;4953774;28;20182;-89
2021/01/26 06:06:58;;;;;;;17.10;7.20;;;0.70;99.90;;;;;;4949051;28;20273;-88
2021/01/26 06:09:37;;;;;;;13.77;6.20;;;0.70;99.90;;;;;;4977518;28;20185;-89
2021/01/26 06:12:27;;;;;;;10.53;5.57;;;0.80;99.90;;;;;;4972282;28;20205;-86
2021/01/26 06:14:57;;;;;;;15.37;7.00;;;0.70;99.90;;;;;;4959194;28;20195;-88
2021/01/26 06:17:25;;;;;;;13.83;6.10;;;0.70;99.90;;;;;;4958434;28;20213;-84
2021/01/26 06:20:03;;;;;;;12.57;5.93;;;0.70;99.90;;;;;;4956577;28;20272;-84
2021/01/26 06:22:29;;;;;;;13.67;6.37;;;0.70;99.90;;;;;;4965695;28;20182;-85
2021/01/26 06:24:56;;;;;;;15.03;6.67;;;0.70;99.90;;;;;;4943949;28;20657;-83
2021/01/26 06:27:46;;;;;;;17.43;7.60;;;0.70;99.90;;;;;;4966518;28;20257;-83
2021/01/26 06:30:25;;;;;;;16.40;7.00;;;0.70;99.90;;;;;;4954857;28;20241;-83
2021/01/26 06:33:38;;;;;;;15.33;7.77;;;0.70;99.90;;;;;;4951424;28;20190;-83
2021/01/26 06:36:45;;;;;;;21.73;10.30;;;0.70;99.90;;;;;;4955156;28;20209;-84
2021/01/26 06:39:22;;;;;;;21.10;10.00;;;0.70;99.90;;;;;;4953309;28;20278;-86
2021/01/26 06:42:31;;;;;;;34.23;18.77;;;0.70;99.90;;;;;;4962646;28;20662;-85
2021/01/26 06:45:02;;;;;;;35.20;21.63;;;0.60;99.90;;;;;;4953712;28;20186;-85
2021/01/26 06:48:10;;;;;;;25.20;15.83;;;0.50;99.90;;;;;;4970196;28;20198;-85
2021/01/26 06:50:57;;;;;;;18.30;10.03;;;0.50;99.90;;;;;;4930861;28;21128;-85
2021/01/26 06:53:52;;;;;;;18.93;9.40;;;0.50;99.90;;;;;;4968364;28;20218;-85
2021/01/26 06:56:49;;;;;;;16.60;8.40;;;0.50;99.90;;;;;;4968085;28;20210;-84
2021/01/26 06:59:44;;;;;;;20.17;8.73;;;0.50;99.90;;;;;;4964267;28;20262;-83
2021/01/26 07:02:37;;;;;;;18.47;7.23;;;0.50;99.90;;;;;;4952158;28;20189;-85
2021/01/26 07:05:43;;;;;;;16.90;9.10;;;0.50;99.90;;;;;;4973849;28;20178;-84
2021/01/26 07:08:42;;;;;;;19.40;9.00;;;0.50;99.90;;;;;;4955080;28;20201;-84
2021/01/26 07:11:23;;;;;;;29.53;9.47;;;0.40;99.90;;;;;;4956320;28;20587;-85
2021/01/26 07:13:58;;;;;;;25.07;11.67;;;0.40;99.90;;;;;;4952408;28;20186;-84
2021/01/26 07:16:26;;;;;;;24.17;13.50;;;0.40;99.90;;;;;;4977364;28;20215;-85
2021/01/26 07:19:03;;;;;;;23.30;11.53;;;0.40;99.90;;;;;;4949032;28;20317;-84
2021/01/26 07:21:48;;;;;;;25.43;10.77;;;0.40;99.90;;;;;;4973926;28;20201;-84
2021/01/26 07:24:45;;;;;;;38.43;15.87;;;0.40;99.90;;;;;;4956092;28;20261;-87
2021/01/26 07:27:40;;;;;;;23.70;11.17;;;0.50;99.90;;;;;;4951819;28;20683;-86
2021/01/26 07:30:27;;;;;;;16.17;8.20;;;0.60;99.90;;;;;;4971724;28;20696;-85
2021/01/26 07:33:02;;;;;;;16.27;7.60;;;0.60;99.90;;;;;;4958010;28;20637;-84
2021/01/26 07:35:51;;;;;;;13.53;7.03;;;0.60;99.90;;;;;;4972908;28;20256;-82
2021/01/26 07:38:27;;;;;;;15.60;7.37;;;0.70;99.90;;;;;;4947397;28;20705;-84
2021/01/26 07:41:15;;;;;;;14.27;7.60;;;0.70;99.90;;;;;;4953299;28;20189;-86
2021/01/26 07:43:59;;;;;;;13.13;6.93;;;0.80;99.90;;;;;;4947545;28;20285;-88
2021/01/26 07:46:31;;;;;;;14.30;5.87;;;0.90;99.90;;;;;;4974947;28;20191;-86
2021/01/26 07:49:10;;;;;;;14.77;5.33;;;1.00;99.90;;;;;;4958639;28;20209;-87
2021/01/26 07:51:40;;;;;;;11.47;5.30;;;1.00;99.90;;;;;;4958570;28;20656;-84
2021/01/26 07:54:14;;;;;;;12.20;6.73;;;1.10;99.90;;;;;;4972841;28;20211;-86
2021/01/26 07:56:41;;;;;;;14.63;5.77;;;1.00;99.90;;;;;;4969742;28;20209;-86
2021/01/26 07:59:15;;;;;;;12.87;6.90;;;1.10;99.90;;;;;;4952864;28;20202;-85
2021/01/26 08:01:49;;;;;;;13.57;7.27;;;1.10;99.90;;;;;;4953673;28;20190;-85
2021/01/26 08:04:16;;;;;;;16.93;7.90;;;1.10;99.90;;;;;;4958109;28;20652;-86
2021/01/26 08:06:48;;;;;;;20.37;9.63;;;1.10;99.90;;;;;;4951728;28;20193;-88
2021/01/26 08:09:41;;;;;;;16.77;9.50;;;1.00;99.90;;;;;;4957985;28;20194;-86
2021/01/26 08:12:11;;;;;;;20.47;10.03;;;1.00;99.90;;;;;;4957251;28;20194;-85
2021/01/26 08:14:46;;;;;;;21.37;11.70;;;1.00;99.90;;;;;;4951411;28;20655;-84
2021/01/26 08:17:25;;;;;;;21.77;9.97;;;1.00;99.90;;;;;;4955076;28;20300;-85
2021/01/26 08:20:05;;;;;;;14.57;8.40;;;1.00;99.90;;;;;;4971790;28;20220;-88
2021/01/26 08:22:33;;;;;;;19.83;9.33;;;1.00;99.90;;;;;;4973664;28;20193;-86
2021/01/26 08:25:23;;;;;;;25.07;11.30;;;1.00;99.90;;;;;;4970976;28;20205;-86
2021/01/26 08:27:59;;;;;;;22.27;10.23;;;1.00;99.90;;;;;;4955769;28;20695;-87
2021/01/26 08:30:51;;;;;;;18.40;8.43;;;1.20;99.90;;;;;;4971417;28;20177;-85
2021/01/26 08:33:22;;;;;;;17.00;8.43;;;1.20;99.90;;;;;;4969271;28;20175;-85
2021/01/26 08:36:11;;;;;;;19.40;8.90;;;1.20;99.90;;;;;;4958368;28;22045;-87
2021/01/26 08:38:50;;;;;;;16.23;8.73;;;1.20;99.90;;;;;;4947508;28;20818;-82
2021/01/26 08:41:38;;;;;;;15.67;8.40;;;1.30;99.90;;;;;;4977622;28;20190;-84
2021/01/26 08:44:05;;;;;;;13.70;7.67;;;1.20;99.90;;;;;;4973441;28;20189;-85
2021/01/26 08:46:36;;;;;;;14.33;7.23;;;1.20;99.90;;;;;;4957818;28;20196;-86
2021/01/26 08:49:25;;;;;;;14.20;6.63;;;1.20;99.90;;;;;;4950808;28;20078;-81
2021/01/26 08:51:52;;;;;;;21.27;9.77;;;1.20;99.90;;;;;;4968463;28;20191;-84
2021/01/26 08:54:44;;;;;;;22.17;10.80;;;1.30;99.90;;;;;;4947961;29;20194;-82
2021/01/26 08:57:26;;;;;;;16.20;8.30;;;1.30;99.90;;;;;;4952642;28;20210;-84
2021/01/26 08:59:52;;;;;;;14.87;6.67;;;1.20;99.90;;;;;;4952633;28;20249;-84
2021/01/26 09:02:34;;;;;;;13.33;7.03;;;1.20;99.90;;;;;;4961836;28;20174;-82
2021/01/26 09:05:00;;;;;;;14.53;7.27;;;1.30;99.90;;;;;;4958072;28;20185;-84
2021/01/26 09:07:46;;;;;;;11.77;5.80;;;1.30;99.90;;;;;;4951319;28;20212;-84
2021/01/26 09:10:27;;;;;;;14.57;6.60;;;1.40;99.90;;;;;;4946539;28;20264;-85
2021/01/26 09:13:18;;;;;;;10.27;4.80;;;1.50;99.90;;;;;;4942693;28;20273;-84
2021/01/26 09:15:57;;;;;;;12.67;5.40;;;1.70;99.90;;;;;;4954049;28;20214;-86
2021/01/26 09:18:25;;;;;;;10.47;5.27;;;2.30;99.90;;;;;;4967070;28;20212;-84
2021/01/26 09:20:57;;;;;;;10.33;4.93;;;2.60;99.90;;;;;;4952420;28;20174;-82
2021/01/26 09:23:23;;;;;;;9.97;4.37;;;2.80;99.90;;;;;;4971733;28;20226;-85
2021/01/26 09:25:49;;;;;;;8.60;3.90;;;2.80;99.90;;;;;;4958758;28;20186;-85
2021/01/26 09:28:19;;;;;;;9.13;4.10;;;2.70;99.90;;;;;;4958587;28;20569;-84
2021/01/26 09:30:47;;;;;;;12.53;5.10;;;2.60;99.90;;;;;;4972625;28;20217;-85
2021/01/26 09:33:12;;;;;;;10.70;4.87;;;2.50;99.90;;;;;;4956560;28;20194;-85
2021/01/26 09:36:01;;;;;;;9.73;5.10;;;2.40;99.90;;;;;;4958366;28;20304;-84
2021/01/26 09:38:35;;;;;;;10.63;5.13;;;2.30;99.90;;;;;;4948701;28;20236;-84
2021/01/26 09:41:19;;;;;;;9.83;4.90;;;2.30;99.90;;;;;;4955149;28;20188;-85
2021/01/26 09:43:52;;;;;;;9.67;4.10;;;2.20;99.90;;;;;;4973948;28;20182;-86
2021/01/26 09:46:59;;;;;;;8.60;3.73;;;2.20;99.90;;;;;;4958859;28;20645;-85
2021/01/26 09:49:27;;;;;;;8.13;3.00;;;2.30;99.90;;;;;;4930821;28;20206;-86
2021/01/26 09:52:14;;;;;;;6.27;2.50;;;2.30;99.90;;;;;;4954065;28;20559;-86
2021/01/26 09:55:00;;;;;;;6.47;2.47;;;2.30;99.90;;;;;;4970997;28;20249;-88
2021/01/26 09:57:26;;;;;;;8.27;2.00;;;2.40;99.90;;;;;;4949712;28;20700;-86
2021/01/26 09:59:53;;;;;;;5.83;2.37;;;2.50;99.90;;;;;;4954529;28;20190;-88
2021/01/26 10:02:35;;;;;;;5.33;2.03;;;2.50;99.90;;;;;;4950623;28;20194;-88
2021/01/26 10:05:00;;;;;;;6.87;2.40;;;2.50;99.90;;;;;;4956711;28;20178;-83
2021/01/26 10:07:26;;;;;;;6.53;2.00;;;2.60;99.90;;;;;;4972524;28;20284;-84
2021/01/26 10:09:52;;;;;;;8.17;2.30;;;2.60;99.90;;;;;;4956997;28;21750;-86
2021/01/26 10:12:22;;;;;;;9.77;2.53;;;2.70;99.90;;;;;;4952359;28;20294;-85
2021/01/26 10:15:10;;;;;;;5.00;2.10;;;2.70;99.90;;;;;;4955193;28;20190;-84
2021/01/26 10:17:48;;;;;;;4.93;1.87;;;2.80;99.90;;;;;;4956400;28;20229;-86
2021/01/26 10:20:27;;;;;;;7.43;1.70;;;2.80;99.90;;;;;;4968243;28;20183;-85
2021/01/26 10:23:09;;;;;;;4.83;1.50;;;2.80;99.90;;;;;;4951897;28;20193;-87
2021/01/26 10:25:36;;;;;;;8.33;1.70;;;2.80;99.90;;;;;;4954288;28;20182;-86
2021/01/26 10:28:24;;;;;;;5.30;1.50;;;2.80;99.90;;;;;;4957499;28;20572;-83
2021/01/26 10:30:50;;;;;;;6.00;1.43;;;3.00;99.90;;;;;;4951743;28;20246;-85
2021/01/26 10:33:38;;;;;;;5.80;1.60;;;3.00;99.90;;;;;;4953899;28;20182;-87
2021/01/26 10:36:29;;;;;;;5.77;1.30;;;3.00;99.90;;;;;;4955615;28;20205;-85
2021/01/26 10:38:56;;;;;;;5.10;1.23;;;3.10;99.90;;;;;;4952757;28;20201;-88
2021/01/26 10:41:34;;;;;;;4.93;0.70;;;3.10;99.90;;;;;;4951693;28;20175;-85
2021/01/26 10:44:20;;;;;;;2.93;1.20;;;3.00;99.90;;;;;;4947044;28;20206;-83
2021/01/26 10:47:21;;;;;;;4.20;1.23;;;3.20;99.90;;;;;;4949589;28;20201;-86
2021/01/26 10:50:03;;;;;;;3.63;0.93;;;3.20;99.90;;;;;;4963451;28;20724;-84
2021/01/26 10:52:38;;;;;;;4.90;1.33;;;3.20;99.90;;;;;;4948773;28;20182;-84
2021/01/26 10:55:05;;;;;;;7.07;1.20;;;3.30;99.90;;;;;;4946494;28;20186;-85
2021/01/26 10:57:30;;;;;;;5.43;1.10;;;3.40;99.90;;;;;;4969495;28;20691;-85
2021/01/26 10:59:56;;;;;;;7.30;1.70;;;3.30;99.90;;;;;;4967593;28;20201;-85
2021/01/26 11:02:22;;;;;;;6.47;1.37;;;3.40;99.90;;;;;;4967420;28;20249;-84
2021/01/26 11:04:48;;;;;;;9.30;2.30;;;3.20;99.90;;;;;;4955942;28;20186;-84
2021/01/26 11:07:14;;;;;;;7.17;1.80;;;3.30;99.90;;;;;;4952205;28;20213;-84
2021/01/26 11:09:41;;;;;;;12.73;2.03;;;3.30;99.90;;;;;;4956075;28;20293;-84
2021/01/26 11:12:07;;;;;;;12.73;2.97;;;3.40;99.90;;;;;;4948470;28;20186;-83
2021/01/26 11:14:40;;;;;;;4.80;0.93;;;3.40;99.90;;;;;;4954128;28;20850;-85
2021/01/26 11:17:06;;;;;;;3.97;0.97;;;3.50;99.90;;;;;;4952627;28;20194;-85
2021/01/26 11:58:22;;;;;;;3.77;1.13;;;3.70;99.90;;;;;;5128497;23;20260;-84
2021/01/26 12:00:53;;;;;;;3.03;0.90;;;3.60;99.90;;;;;;4978818;28;20279;-85
2021/01/26 12:03:22;;;;;;;3.80;0.70;;;3.70;99.90;;;;;;4979188;28;20179;-84
2021/01/26 12:05:47;;;;;;;4.70;1.10;;;3.80;99.90;;;;;;4982112;28;20198;-86
2021/01/26 12:08:14;;;;;;;3.70;0.80;;;3.70;99.90;;;;;;4981112;28;20204;-86
2021/01/26 12:10:41;;;;;;;3.70;0.90;;;3.80;99.90;;;;;;4981931;28;20178;-86
2021/01/26 12:13:07;;;;;;;5.53;1.20;;;3.80;99.90;;;;;;4981942;28;20182;-85
2021/01/26 12:15:35;;;;;;;2.13;0.80;;;3.80;99.90;;;;;;4980064;28;20186;-85
2021/01/26 12:18:01;;;;;;;4.50;1.10;;;3.70;99.90;;;;;;4979075;28;20210;-85
2021/01/26 12:20:28;;;;;;;4.50;1.10;;;3.70;99.90;;;;;;4974409;28;20193;-85
2021/01/26 12:22:57;;;;;;;4.40;1.10;;;3.80;99.90;;;;;;4980901;28;20191;-86
2021/01/26 12:25:24;;;;;;;6.37;1.07;;;3.70;99.90;;;;;;4986394;28;20175;-85
2021/01/26 12:27:50;;;;;;;6.47;1.13;;;3.70;99.90;;;;;;5012167;28;20237;-85
2021/01/26 12:30:16;;;;;;;3.60;1.10;;;3.60;99.90;;;;;;4980369;28;20178;-84
2021/01/26 12:32:42;;;;;;;2.90;0.90;;;3.80;99.90;;;;;;4980038;28;20191;-85
2021/01/26 12:35:13;;;;;;;1.93;0.67;;;3.80;99.90;;;;;;4983031;28;20174;-86
2021/01/26 12:37:38;;;;;;;3.27;1.00;;;3.90;99.90;;;;;;5011046;28;20249;-86
2021/01/26 12:40:05;;;;;;;2.37;0.83;;;3.90;99.90;;;;;;4970847;28;20175;-87
2021/01/26 12:42:31;;;;;;;2.20;0.70;;;3.90;99.90;;;;;;4974350;28;20273;-85
2021/01/26 12:44:56;;;;;;;3.83;1.00;;;3.90;99.90;;;;;;4977310;28;20183;-87
2021/01/26 12:47:25;;;;;;;2.80;0.70;;;3.90;99.90;;;;;;4978723;28;21185;-85
2021/01/26 12:49:51;;;;;;;5.83;0.93;;;3.90;99.90;;;;;;4977349;28;20177;-85
2021/01/26 12:52:17;;;;;;;4.57;0.90;;;4.00;99.90;;;;;;4978103;28;20200;-86
2021/01/26 12:54:43;;;;;;;5.07;0.87;;;3.90;99.90;;;;;;5009066;28;20189;-86
2021/01/26 12:57:08;;;;;;;3.00;0.80;;;3.90;99.90;;;;;;4980126;28;20270;-86
2021/01/26 12:59:34;;;;;;;4.67;1.40;;;4.00;99.90;;;;;;4976637;28;20202;-84
2021/01/26 13:02:00;;;;;;;2.80;0.77;;;4.00;99.90;;;;;;4975865;28;20195;-86
2021/01/26 13:04:26;;;;;;;3.97;1.50;;;4.00;99.90;;;;;;4979316;28;20186;-86
2021/01/26 13:06:52;;;;;;;3.83;0.97;;;3.90;99.90;;;;;;4985785;28;20196;-85
2021/01/26 13:09:20;;;;;;;8.53;1.50;;;4.00;99.90;;;;;;4975209;28;20203;-86
2021/01/26 13:11:46;;;;;;;3.53;0.80;;;4.10;99.90;;;;;;4969363;28;20236;-87
2021/01/26 13:14:11;;;;;;;3.77;1.00;;;4.10;99.90;;;;;;4969557;28;20190;-86
2021/01/26 13:16:40;;;;;;;3.43;0.70;;;4.20;99.90;;;;;;4975948;28;20283;-84
2021/01/26 13:19:09;;;;;;;2.27;0.80;;;4.10;99.90;;;;;;4982779;28;20274;-88
2021/01/26 13:21:36;;;;;;;3.47;1.00;;;4.20;99.90;;;;;;5002070;28;20187;-85
2021/01/26 13:24:02;;;;;;;1.57;0.50;;;4.20;99.90;;;;;;4965804;28;20203;-85
2021/01/26 13:26:29;;;;;;;2.70;0.70;;;4.10;99.90;;;;;;4957809;28;20178;-86
2021/01/26 13:28:54;;;;;;;4.00;0.80;;;4.10;99.90;;;;;;4953659;28;20312;-85
2021/01/26 13:31:31;;;;;;;8.00;1.30;;;4.00;99.90;;;;;;4956651;28;20688;-86
2021/01/26 13:33:57;;;;;;;3.00;0.67;;;4.10;99.90;;;;;;4961559;28;20268;-85
2021/01/26 13:36:23;;;;;;;3.10;0.80;;;4.10;99.90;;;;;;4958132;28;20304;-85
2021/01/26 13:38:48;;;;;;;5.83;1.10;;;4.10;99.90;;;;;;4961856;28;20212;-86
2021/01/26 13:41:14;;;;;;;4.83;1.23;;;4.00;99.90;;;;;;4955921;28;20197;-85
2021/01/26 13:43:40;;;;;;;10.10;1.27;;;4.10;99.90;;;;;;4965154;28;20548;-86
2021/01/26 13:46:05;;;;;;;3.17;0.97;;;4.00;99.90;;;;;;4954773;28;20242;-85
2021/01/26 13:48:31;;;;;;;9.40;0.80;;;4.00;99.90;;;;;;4954368;28;20213;-84
2021/01/26 13:50:56;;;;;;;2.37;0.83;;;4.20;99.90;;;;;;4988611;28;20195;-85
2021/01/26 13:53:25;;;;;;;5.83;0.87;;;4.30;99.90;;;;;;4962337;28;20190;-83
2021/01/26 13:55:51;;;;;;;3.67;1.40;;;4.20;99.90;;;;;;4957147;28;20247;-85
2021/01/26 13:58:17;;;;;;;2.10;0.80;;;4.30;99.90;;;;;;4963253;28;20218;-86
2021/01/26 14:00:42;;;;;;;3.77;1.00;;;4.30;99.90;;;;;;4957570;28;20693;-84
2021/01/26 14:03:08;;;;;;;2.10;0.60;;;4.30;99.90;;;;;;4958261;28;20180;-85
2021/01/26 14:05:34;;;;;;;2.77;0.63;;;4.40;99.90;;;;;;4958271;28;20182;-87